Time;durP1;ratioP1;P1;durP2;ratioP2;P2;SDS_P1;SDS_P2;PMS_P1;PMS_P2;Temp;Humidity;BMP_temperature;BMP_pressure;BME280_temperature;BME280_humidity;BME280_pressure;Samples;Min_cycle;Max_cycle;Signal;HPM_P1;HPM_P2
2024/01/26 00:01:55;;;;;;;16.42;4.47;;;;;;;;;;5079374;28;20381;-86
2024/01/26 00:04:21;;;;;;;18.77;4.22;;;;;;;;;;5079186;28;20016;-87
2024/01/26 00:06:47;;;;;;;19.90;4.05;;;;;;;;;;5079660;28;20480;-87
2024/01/26 00:09:12;;;;;;;16.42;3.67;;;;;;;;;;5079829;28;20040;-87
2024/01/26 00:11:41;;;;;;;16.63;4.28;;;;;;;;;;5079278;28;20020;-87
2024/01/26 00:14:07;;;;;;;10.90;3.45;;;;;;;;;;5079035;28;20027;-86
2024/01/26 00:16:33;;;;;;;18.25;3.67;;;;;;;;;;5079563;28;20017;-86
2024/01/26 00:18:58;;;;;;;14.43;4.00;;;;;;;;;;5079427;28;20012;-85
2024/01/26 00:21:24;;;;;;;13.10;4.85;;;;;;;;;;5078867;28;20017;-87
2024/01/26 00:23:49;;;;;;;10.52;4.18;;;;;;;;;;5088506;28;20074;-86
2024/01/26 00:26:14;;;;;;;14.20;4.55;;;;;;;;;;5093206;28;20020;-85
2024/01/26 00:28:40;;;;;;;14.20;3.67;;;;;;;;;;5116813;28;20040;-85
2024/01/26 00:31:06;;;;;;;11.25;3.70;;;;;;;;;;5101973;28;20088;-87
2024/01/26 00:33:31;;;;;;;18.20;4.10;;;;;;;;;;5085693;28;20026;-86
2024/01/26 00:35:57;;;;;;;17.65;3.92;;;;;;;;;;5109385;28;20016;-86
2024/01/26 00:38:23;;;;;;;19.02;4.32;;;;;;;;;;5109035;28;20031;-86
2024/01/26 00:40:48;;;;;;;15.10;4.65;;;;;;;;;;5082012;28;20012;-86
2024/01/26 00:43:13;;;;;;;12.10;4.18;;;;;;;;;;5080684;28;20504;-87
2024/01/26 00:45:39;;;;;;;17.05;4.25;;;;;;;;;;5079997;28;20016;-85
2024/01/26 00:48:04;;;;;;;15.45;3.78;;;;;;;;;;5099143;28;20021;-87
2024/01/26 00:50:30;;;;;;;15.73;4.70;;;;;;;;;;5099000;28;20028;-86
2024/01/26 00:52:55;;;;;;;13.88;4.00;;;;;;;;;;5080032;28;20028;-87
2024/01/26 00:55:20;;;;;;;16.27;3.75;;;;;;;;;;5080442;28;20099;-88
2024/01/26 00:57:46;;;;;;;19.20;3.70;;;;;;;;;;5098144;28;20028;-87
2024/01/26 01:00:12;;;;;;;15.15;4.45;;;;;;;;;;5080487;28;20061;-86
2024/01/26 01:02:37;;;;;;;14.13;4.22;;;;;;;;;;5098990;28;20016;-86
2024/01/26 01:05:03;;;;;;;14.73;4.10;;;;;;;;;;5098558;28;20012;-87
2024/01/26 01:07:28;;;;;;;19.38;4.72;;;;;;;;;;5098964;28;20012;-86
2024/01/26 01:09:53;;;;;;;16.02;3.95;;;;;;;;;;5098238;28;20016;-86
2024/01/26 01:12:19;;;;;;;18.35;4.43;;;;;;;;;;5079521;28;20457;-86
2024/01/26 01:14:44;;;;;;;14.32;3.67;;;;;;;;;;5097727;28;20024;-86
2024/01/26 01:17:11;;;;;;;18.20;4.50;;;;;;;;;;5079829;28;20019;-87
2024/01/26 01:19:36;;;;;;;20.08;5.00;;;;;;;;;;5097835;28;20020;-87
2024/01/26 01:22:02;;;;;;;19.50;5.40;;;;;;;;;;5079457;28;20070;-84
2024/01/26 01:24:27;;;;;;;18.38;4.50;;;;;;;;;;5097643;28;20103;-87
2024/01/26 01:26:52;;;;;;;15.05;4.35;;;;;;;;;;5097069;28;20027;-87
2024/01/26 01:29:18;;;;;;;13.38;3.80;;;;;;;;;;5097349;28;20020;-87
2024/01/26 01:31:43;;;;;;;18.15;4.25;;;;;;;;;;5079116;28;20024;-85
2024/01/26 01:34:08;;;;;;;18.00;5.03;;;;;;;;;;5096867;28;20020;-86
2024/01/26 01:36:34;;;;;;;15.27;4.25;;;;;;;;;;5079177;28;20016;-87
2024/01/26 01:39:00;;;;;;;17.33;5.40;;;;;;;;;;5097417;28;20377;-87
2024/01/26 01:41:25;;;;;;;19.20;5.07;;;;;;;;;;5080989;28;20016;-86
2024/01/26 01:43:53;;;;;;;21.90;4.72;;;;;;;;;;5097250;28;20111;-85
2024/01/26 01:46:19;;;;;;;17.77;5.22;;;;;;;;;;5097405;28;20419;-86
2024/01/26 01:48:44;;;;;;;18.48;4.72;;;;;;;;;;5079015;28;20073;-86
2024/01/26 01:51:10;;;;;;;21.80;6.50;;;;;;;;;;5097279;28;20378;-86
2024/01/26 01:53:35;;;;;;;19.88;4.85;;;;;;;;;;5078508;28;20020;-86
2024/01/26 01:56:01;;;;;;;17.70;5.55;;;;;;;;;;5097831;28;20024;-85
2024/01/26 01:58:26;;;;;;;17.70;5.45;;;;;;;;;;5098656;28;20461;-84
2024/01/26 02:00:51;;;;;;;21.15;4.75;;;;;;;;;;5098629;28;20365;-86
2024/01/26 02:03:16;;;;;;;22.48;5.65;;;;;;;;;;5098831;28;20024;-86
2024/01/26 02:05:43;;;;;;;14.13;5.18;;;;;;;;;;5097197;28;20020;-86
2024/01/26 02:08:08;;;;;;;22.08;5.75;;;;;;;;;;5096815;28;20444;-85
2024/01/26 02:10:33;;;;;;;18.60;4.75;;;;;;;;;;5096450;28;20094;-85
2024/01/26 02:12:59;;;;;;;20.05;4.38;;;;;;;;;;5080048;28;20031;-85
2024/01/26 02:15:24;;;;;;;17.85;4.43;;;;;;;;;;5096773;28;20381;-86
2024/01/26 02:17:50;;;;;;;17.20;4.82;;;;;;;;;;5078350;28;20433;-85
2024/01/26 02:20:15;;;;;;;18.50;4.80;;;;;;;;;;5095308;28;20031;-87
2024/01/26 02:22:40;;;;;;;18.50;4.93;;;;;;;;;;5078226;28;20420;-87
2024/01/26 02:25:06;;;;;;;20.70;5.00;;;;;;;;;;5096661;28;20421;-86
2024/01/26 02:27:31;;;;;;;18.70;4.78;;;;;;;;;;5096238;28;20044;-85
2024/01/26 02:29:57;;;;;;;17.25;4.57;;;;;;;;;;5077926;28;20067;-86
2024/01/26 02:32:22;;;;;;;13.18;5.25;;;;;;;;;;5078316;28;20016;-87
2024/01/26 02:34:47;;;;;;;21.27;4.53;;;;;;;;;;5078446;28;20385;-85
2024/01/26 02:37:13;;;;;;;17.83;5.18;;;;;;;;;;5078331;28;20039;-85
2024/01/26 02:39:38;;;;;;;18.30;4.93;;;;;;;;;;5096983;28;20073;-86
2024/01/26 02:42:04;;;;;;;17.65;5.10;;;;;;;;;;5097048;28;20016;-86
2024/01/26 02:44:30;;;;;;;11.70;4.40;;;;;;;;;;5099152;28;20020;-86
2024/01/26 02:46:55;;;;;;;18.35;5.28;;;;;;;;;;5104911;28;20023;-84
2024/01/26 02:49:20;;;;;;;16.05;5.22;;;;;;;;;;5111169;28;20022;-85
2024/01/26 02:51:46;;;;;;;15.30;4.88;;;;;;;;;;5101843;28;20008;-84
2024/01/26 02:54:11;;;;;;;14.48;4.30;;;;;;;;;;5119236;28;20028;-86
2024/01/26 02:56:36;;;;;;;21.08;4.45;;;;;;;;;;5118130;28;20012;-85
2024/01/26 02:59:01;;;;;;;23.58;5.63;;;;;;;;;;5100080;28;20024;-84
2024/01/26 03:01:27;;;;;;;10.82;4.78;;;;;;;;;;5101711;28;20004;-85
2024/01/26 03:03:53;;;;;;;20.35;4.32;;;;;;;;;;5100573;28;20033;-86
2024/01/26 03:06:18;;;;;;;11.63;4.50;;;;;;;;;;5097126;28;20012;-88
2024/01/26 03:08:43;;;;;;;20.63;5.10;;;;;;;;;;5096567;28;20016;-86
2024/01/26 03:11:11;;;;;;;20.80;5.15;;;;;;;;;;5077877;28;20095;-84
2024/01/26 03:13:36;;;;;;;18.10;4.68;;;;;;;;;;5095615;28;20148;-86
2024/01/26 03:16:02;;;;;;;22.08;5.90;;;;;;;;;;5095831;28;20023;-85
2024/01/26 03:18:27;;;;;;;18.70;4.40;;;;;;;;;;5080170;28;20044;-86
2024/01/26 03:20:52;;;;;;;15.52;4.38;;;;;;;;;;5081155;28;20119;-85
2024/01/26 03:23:17;;;;;;;15.38;4.32;;;;;;;;;;5099333;28;20039;-88
2024/01/26 03:25:43;;;;;;;14.45;4.00;;;;;;;;;;5098026;28;20024;-88
2024/01/26 03:28:08;;;;;;;16.90;5.22;;;;;;;;;;5096296;28;20075;-86
2024/01/26 03:30:33;;;;;;;12.95;4.07;;;;;;;;;;5096739;28;20016;-86
2024/01/26 03:32:59;;;;;;;16.60;4.15;;;;;;;;;;5078110;28;20461;-83
2024/01/26 03:35:24;;;;;;;15.77;4.13;;;;;;;;;;5098891;28;20009;-85
2024/01/26 03:37:50;;;;;;;18.13;5.07;;;;;;;;;;5098901;28;20022;-85
2024/01/26 03:40:15;;;;;;;17.67;4.65;;;;;;;;;;5096872;28;20422;-87
2024/01/26 03:42:41;;;;;;;17.75;4.50;;;;;;;;;;5096082;28;20099;-84
2024/01/26 03:45:07;;;;;;;18.23;5.13;;;;;;;;;;5098016;28;20016;-85
2024/01/26 03:47:32;;;;;;;13.05;4.20;;;;;;;;;;5103476;28;20023;-86
2024/01/26 03:49:57;;;;;;;13.90;4.30;;;;;;;;;;5081789;28;20532;-86
2024/01/26 03:52:23;;;;;;;12.10;3.95;;;;;;;;;;5096257;28;20057;-88
2024/01/26 03:54:48;;;;;;;14.68;4.00;;;;;;;;;;5096111;28;20028;-87
2024/01/26 03:57:13;;;;;;;15.07;4.55;;;;;;;;;;5095677;28;20020;-86
2024/01/26 03:59:39;;;;;;;19.05;4.40;;;;;;;;;;5096065;28;20465;-86
2024/01/26 04:02:05;;;;;;;14.95;4.82;;;;;;;;;;5096171;28;20479;-87
2024/01/26 04:04:30;;;;;;;17.17;4.43;;;;;;;;;;5099280;28;20020;-84
2024/01/26 04:06:55;;;;;;;23.55;5.05;;;;;;;;;;5079442;28;20026;-87
2024/01/26 04:09:21;;;;;;;16.98;4.47;;;;;;;;;;5077259;28;20028;-87
2024/01/26 04:11:46;;;;;;;14.18;4.30;;;;;;;;;;5077912;28;20431;-85
2024/01/26 04:14:11;;;;;;;19.30;4.45;;;;;;;;;;5077701;28;20515;-85
2024/01/26 04:16:36;;;;;;;21.08;5.15;;;;;;;;;;5095857;28;20054;-86
2024/01/26 04:19:02;;;;;;;16.50;4.32;;;;;;;;;;5096052;28;20020;-85
2024/01/26 04:21:28;;;;;;;18.83;5.03;;;;;;;;;;5095713;28;20008;-86
2024/01/26 04:23:53;;;;;;;15.65;4.18;;;;;;;;;;5095308;28;20028;-87
2024/01/26 04:26:18;;;;;;;21.83;4.35;;;;;;;;;;5095798;28;20012;-86
2024/01/26 04:28:44;;;;;;;12.15;4.10;;;;;;;;;;5073909;28;20045;-86
2024/01/26 04:31:09;;;;;;;18.65;4.53;;;;;;;;;;5074381;28;20115;-88
2024/01/26 04:33:35;;;;;;;13.93;4.47;;;;;;;;;;5076905;28;20028;-87
2024/01/26 04:36:00;;;;;;;17.70;4.25;;;;;;;;;;5079296;28;20100;-85
2024/01/26 04:38:26;;;;;;;21.38;4.72;;;;;;;;;;5079746;28;20016;-85
2024/01/26 04:40:51;;;;;;;15.75;4.95;;;;;;;;;;5079347;28;20020;-86
2024/01/26 04:43:17;;;;;;;16.48;4.28;;;;;;;;;;5079672;28;20097;-87
2024/01/26 04:45:43;;;;;;;14.00;4.18;;;;;;;;;;5079190;28;20032;-86
2024/01/26 04:48:08;;;;;;;15.57;4.15;;;;;;;;;;5079708;28;20017;-86
2024/01/26 04:50:34;;;;;;;16.67;4.60;;;;;;;;;;5078137;28;20020;-88
2024/01/26 04:52:59;;;;;;;17.88;5.32;;;;;;;;;;5077135;28;20032;-86
2024/01/26 04:55:33;;;;;;;17.25;4.95;;;;;;;;;;5078495;28;20047;-88
2024/01/26 04:57:58;;;;;;;14.75;4.65;;;;;;;;;;5077246;28;20012;-86
2024/01/26 05:00:25;;;;;;;15.15;4.97;;;;;;;;;;5078538;28;20454;-87
2024/01/26 05:02:50;;;;;;;16.92;5.45;;;;;;;;;;5079346;28;20485;-85
2024/01/26 05:05:15;;;;;;;13.98;5.07;;;;;;;;;;5078752;28;20024;-86
2024/01/26 05:07:41;;;;;;;16.10;5.45;;;;;;;;;;5078681;28;20050;-87
2024/01/26 05:10:07;;;;;;;23.52;5.28;;;;;;;;;;5077029;28;20017;-87
2024/01/26 05:12:32;;;;;;;20.90;5.60;;;;;;;;;;5077974;28;20082;-86
2024/01/26 05:14:58;;;;;;;19.77;4.97;;;;;;;;;;5077669;28;20024;-87
2024/01/26 05:17:23;;;;;;;19.55;5.03;;;;;;;;;;5077513;28;20531;-85
2024/01/26 05:19:48;;;;;;;18.23;4.55;;;;;;;;;;5077344;28;20410;-86
2024/01/26 05:22:14;;;;;;;19.30;6.00;;;;;;;;;;5076363;28;20542;-86
2024/01/26 05:24:39;;;;;;;19.75;4.90;;;;;;;;;;5078178;28;20016;-86
2024/01/26 05:27:04;;;;;;;14.88;5.68;;;;;;;;;;5079583;28;20040;-87
2024/01/26 05:29:32;;;;;;;21.65;5.97;;;;;;;;;;5098363;28;20052;-88
2024/01/26 05:31:57;;;;;;;20.50;5.47;;;;;;;;;;5097940;28;20069;-87
2024/01/26 05:34:22;;;;;;;18.50;5.05;;;;;;;;;;5098295;28;20020;-85
2024/01/26 05:36:48;;;;;;;23.20;6.30;;;;;;;;;;5080046;28;20380;-86
2024/01/26 05:39:13;;;;;;;16.55;5.65;;;;;;;;;;5097717;28;20070;-88
2024/01/26 05:41:38;;;;;;;19.83;6.00;;;;;;;;;;5098475;28;20035;-86
2024/01/26 05:44:04;;;;;;;18.83;5.80;;;;;;;;;;5101027;28;20052;-86
2024/01/26 05:46:30;;;;;;;19.40;5.78;;;;;;;;;;5100319;28;20020;-87
2024/01/26 05:48:57;;;;;;;13.63;4.35;;;;;;;;;;5082827;28;20566;-88
2024/01/26 05:51:22;;;;;;;17.40;5.68;;;;;;;;;;5082561;28;20031;-87
2024/01/26 05:53:48;;;;;;;18.85;6.30;;;;;;;;;;5100383;28;20016;-87
2024/01/26 05:56:13;;;;;;;21.02;6.35;;;;;;;;;;5100091;28;20122;-86
2024/01/26 05:58:39;;;;;;;22.75;7.38;;;;;;;;;;5101393;28;20020;-85
2024/01/26 06:01:04;;;;;;;17.65;5.95;;;;;;;;;;5097430;28;20072;-85
2024/01/26 06:03:29;;;;;;;16.63;6.25;;;;;;;;;;5097597;28;20023;-85
2024/01/26 06:05:54;;;;;;;24.33;7.03;;;;;;;;;;5114419;28;20054;-84
2024/01/26 06:08:20;;;;;;;19.13;6.45;;;;;;;;;;5096761;28;20020;-86
2024/01/26 06:10:46;;;;;;;18.15;5.68;;;;;;;;;;5094250;28;20020;-87
2024/01/26 06:13:11;;;;;;;23.13;6.97;;;;;;;;;;5108422;28;20035;-86
2024/01/26 06:15:36;;;;;;;24.23;6.97;;;;;;;;;;5107443;28;20075;-84
2024/01/26 06:18:02;;;;;;;24.70;7.03;;;;;;;;;;5106830;28;20016;-86
2024/01/26 06:20:31;;;;;;;22.92;7.30;;;;;;;;;;5097263;28;20027;-86
2024/01/26 06:22:59;;;;;;;22.63;7.43;;;;;;;;;;5088505;28;20016;-87
2024/01/26 06:25:25;;;;;;;31.02;8.05;;;;;;;;;;5081056;28;20372;-86
2024/01/26 06:27:51;;;;;;;37.00;8.95;;;;;;;;;;5097844;28;20050;-88
2024/01/26 06:30:16;;;;;;;26.48;8.63;;;;;;;;;;5081493;28;20415;-87
2024/01/26 06:32:42;;;;;;;27.85;8.40;;;;;;;;;;5078600;28;20028;-86
2024/01/26 06:35:11;;;;;;;32.08;9.50;;;;;;;;;;5095571;28;20427;-86
2024/01/26 06:37:36;;;;;;;37.05;10.75;;;;;;;;;;5086278;28;20100;-86
2024/01/26 06:40:02;;;;;;;41.38;10.20;;;;;;;;;;5105343;28;20051;-86
2024/01/26 06:42:29;;;;;;;29.65;8.93;;;;;;;;;;5106017;28;20105;-86
2024/01/26 06:44:55;;;;;;;30.90;10.40;;;;;;;;;;5102428;28;20081;-86
2024/01/26 06:47:20;;;;;;;33.35;9.73;;;;;;;;;;5102646;28;20024;-87
2024/01/26 06:49:46;;;;;;;32.58;9.40;;;;;;;;;;5102386;28;20050;-86
2024/01/26 06:52:11;;;;;;;31.95;8.90;;;;;;;;;;5096774;28;20035;-86
2024/01/26 06:54:38;;;;;;;29.70;10.15;;;;;;;;;;5096432;28;20054;-86
2024/01/26 06:57:03;;;;;;;26.58;9.02;;;;;;;;;;5078744;28;20390;-85
2024/01/26 06:59:29;;;;;;;24.67;9.00;;;;;;;;;;5079164;28;20028;-86
2024/01/26 07:01:55;;;;;;;34.40;9.85;;;;;;;;;;5079292;28;20046;-85
2024/01/26 07:04:20;;;;;;;38.25;9.80;;;;;;;;;;5097225;28;20086;-87
2024/01/26 07:06:46;;;;;;;35.28;11.43;;;;;;;;;;5096456;28;20439;-87
2024/01/26 07:09:11;;;;;;;36.88;11.63;;;;;;;;;;5096881;28;20134;-85
2024/01/26 07:11:38;;;;;;;32.28;10.32;;;;;;;;;;5081704;28;20035;-85
2024/01/26 07:14:04;;;;;;;31.17;11.13;;;;;;;;;;5088865;28;20172;-86
2024/01/26 07:16:29;;;;;;;43.33;12.52;;;;;;;;;;5111278;28;20012;-85
2024/01/26 07:18:54;;;;;;;34.17;10.80;;;;;;;;;;5105611;28;20024;-86
2024/01/26 07:21:20;;;;;;;32.30;9.75;;;;;;;;;;5111165;28;20012;-86
2024/01/26 07:23:46;;;;;;;32.28;9.98;;;;;;;;;;5097777;28;20088;-86
2024/01/26 07:26:17;;;;;;;33.47;8.77;;;;;;;;;;5101062;28;20027;-85
2024/01/26 07:28:42;;;;;;;27.77;8.45;;;;;;;;;;5096529;28;20047;-85
2024/01/26 07:31:07;;;;;;;28.83;9.57;;;;;;;;;;5093693;28;20036;-87
2024/01/26 07:33:33;;;;;;;42.83;11.60;;;;;;;;;;5112420;28;20084;-86
2024/01/26 07:35:58;;;;;;;39.25;12.65;;;;;;;;;;5091898;28;20009;-86
2024/01/26 07:38:23;;;;;;;43.97;13.50;;;;;;;;;;5088084;28;20017;-87
2024/01/26 07:40:49;;;;;;;45.33;13.70;;;;;;;;;;5076385;28;20012;-87
2024/01/26 07:43:15;;;;;;;41.20;13.15;;;;;;;;;;5074458;28;20066;-87
2024/01/26 07:45:40;;;;;;;40.10;12.52;;;;;;;;;;5076584;28;20025;-87
2024/01/26 07:48:05;;;;;;;35.10;10.55;;;;;;;;;;5074575;28;20060;-87
2024/01/26 07:50:31;;;;;;;31.63;10.40;;;;;;;;;;5074233;28;20028;-87
2024/01/26 07:52:57;;;;;;;31.17;11.57;;;;;;;;;;5075572;28;20029;-86
2024/01/26 07:55:22;;;;;;;35.88;12.10;;;;;;;;;;5075655;28;20017;-85
2024/01/26 07:57:48;;;;;;;25.38;10.00;;;;;;;;;;5075711;28;20035;-85
2024/01/26 08:00:13;;;;;;;39.40;10.88;;;;;;;;;;5075561;28;20458;-86
2024/01/26 08:02:39;;;;;;;30.25;8.60;;;;;;;;;;5076176;28;20017;-86
2024/01/26 08:05:04;;;;;;;34.10;9.45;;;;;;;;;;5077252;28;20046;-86
2024/01/26 08:07:30;;;;;;;34.85;9.30;;;;;;;;;;5076948;28;20024;-88
2024/01/26 08:09:55;;;;;;;26.85;9.10;;;;;;;;;;5080911;28;20028;-86
2024/01/26 08:12:21;;;;;;;21.95;8.65;;;;;;;;;;5081177;28;20070;-88
2024/01/26 08:14:46;;;;;;;25.20;8.30;;;;;;;;;;5079203;28;20020;-86
2024/01/26 08:17:11;;;;;;;27.25;8.15;;;;;;;;;;5077771;28;20365;-87
2024/01/26 08:19:37;;;;;;;23.85;7.78;;;;;;;;;;5078724;28;20017;-87
2024/01/26 08:22:03;;;;;;;21.30;7.75;;;;;;;;;;5094329;28;20058;-85
2024/01/26 08:24:29;;;;;;;20.10;6.68;;;;;;;;;;5079280;28;20025;-86
2024/01/26 08:26:54;;;;;;;19.65;8.10;;;;;;;;;;5079972;28;20058;-86
2024/01/26 08:29:21;;;;;;;24.98;7.88;;;;;;;;;;5099421;28;20028;-87
2024/01/26 08:31:47;;;;;;;18.63;6.90;;;;;;;;;;5081545;28;20020;-86
2024/01/26 08:34:12;;;;;;;21.63;8.00;;;;;;;;;;5080394;28;20484;-86
2024/01/26 08:36:38;;;;;;;22.67;7.85;;;;;;;;;;5098462;28;20369;-86
2024/01/26 08:39:04;;;;;;;19.58;6.75;;;;;;;;;;5098552;28;20024;-87
2024/01/26 08:41:29;;;;;;;21.90;7.25;;;;;;;;;;5098944;28;20023;-87
2024/01/26 08:43:54;;;;;;;21.92;6.95;;;;;;;;;;5098868;28;20415;-88
2024/01/26 08:46:20;;;;;;;21.70;7.10;;;;;;;;;;5098987;28;20024;-85
2024/01/26 08:48:46;;;;;;;25.42;8.07;;;;;;;;;;5098857;28;20026;-87
2024/01/26 08:51:11;;;;;;;24.13;7.65;;;;;;;;;;5099053;28;20106;-87
2024/01/26 08:53:36;;;;;;;21.50;7.50;;;;;;;;;;5099430;28;20020;-86
2024/01/26 08:56:05;;;;;;;22.85;8.48;;;;;;;;;;5099865;28;20077;-87
2024/01/26 08:58:30;;;;;;;26.00;7.40;;;;;;;;;;5099368;28;20072;-87
2024/01/26 09:00:55;;;;;;;21.00;7.20;;;;;;;;;;5098548;28;20475;-86
2024/01/26 09:03:21;;;;;;;23.27;6.78;;;;;;;;;;5098831;28;20380;-85
2024/01/26 09:05:46;;;;;;;17.58;6.97;;;;;;;;;;5099501;28;20042;-86
2024/01/26 09:08:11;;;;;;;21.70;7.53;;;;;;;;;;5099781;28;20024;-84
2024/01/26 09:10:37;;;;;;;26.65;8.10;;;;;;;;;;5086966;28;20107;-85
2024/01/26 09:13:02;;;;;;;20.60;7.50;;;;;;;;;;5091271;28;20020;-89
2024/01/26 09:15:27;;;;;;;26.73;8.05;;;;;;;;;;5109659;28;20027;-85
2024/01/26 09:17:52;;;;;;;16.80;7.05;;;;;;;;;;5106489;28;20453;-86
2024/01/26 09:20:18;;;;;;;18.70;7.32;;;;;;;;;;5097343;28;20016;-86
2024/01/26 09:22:43;;;;;;;21.48;7.40;;;;;;;;;;5097897;28;20077;-86
2024/01/26 09:25:08;;;;;;;22.13;7.10;;;;;;;;;;5079626;28;20016;-86
2024/01/26 09:27:34;;;;;;;26.50;7.13;;;;;;;;;;5076338;28;20041;-86
2024/01/26 09:30:00;;;;;;;23.55;8.02;;;;;;;;;;5076596;28;20507;-87
2024/01/26 09:32:25;;;;;;;19.58;7.32;;;;;;;;;;5077537;28;20024;-84
2024/01/26 09:34:51;;;;;;;20.02;7.22;;;;;;;;;;5077329;28;20076;-86
2024/01/26 09:37:16;;;;;;;19.48;7.30;;;;;;;;;;5077485;28;20025;-86
2024/01/26 09:39:41;;;;;;;16.33;7.13;;;;;;;;;;5077431;28;20027;-86
2024/01/26 09:42:07;;;;;;;16.90;6.97;;;;;;;;;;5078655;28;20085;-86
2024/01/26 09:44:32;;;;;;;23.27;7.63;;;;;;;;;;5077398;28;20036;-86
2024/01/26 09:46:58;;;;;;;15.18;7.45;;;;;;;;;;5077182;28;20024;-87
2024/01/26 09:49:24;;;;;;;18.60;7.10;;;;;;;;;;5076678;28;20020;-84
2024/01/26 09:51:50;;;;;;;20.83;7.78;;;;;;;;;;5075560;28;20046;-86
2024/01/26 09:54:17;;;;;;;21.55;7.30;;;;;;;;;;5076319;28;20376;-87
2024/01/26 09:56:42;;;;;;;19.65;7.15;;;;;;;;;;5077335;28;20086;-86
2024/01/26 09:59:08;;;;;;;19.85;6.75;;;;;;;;;;5077437;28;20366;-86
2024/01/26 10:01:37;;;;;;;25.08;6.68;;;;;;;;;;5075621;28;20527;-87
2024/01/26 10:04:02;;;;;;;16.20;6.57;;;;;;;;;;5078421;28;20024;-86
2024/01/26 10:06:29;;;;;;;15.48;5.90;;;;;;;;;;5078600;28;20025;-85
2024/01/26 10:08:55;;;;;;;10.40;4.35;;;;;;;;;;5077285;28;20473;-86
2024/01/26 10:11:20;;;;;;;12.32;4.80;;;;;;;;;;5077222;28;20028;-85
2024/01/26 10:13:45;;;;;;;14.27;4.47;;;;;;;;;;5077115;28;20020;-86
2024/01/26 10:16:11;;;;;;;16.90;5.30;;;;;;;;;;5077589;28;20106;-86
2024/01/26 10:18:42;;;;;;;17.52;5.80;;;;;;;;;;5077604;28;20021;-86
2024/01/26 10:21:07;;;;;;;17.13;6.05;;;;;;;;;;5078012;28;20017;-85
2024/01/26 10:23:32;;;;;;;17.00;6.70;;;;;;;;;;5078905;28;20530;-84
2024/01/26 10:25:57;;;;;;;18.02;6.30;;;;;;;;;;5078404;28;20031;-85
2024/01/26 10:28:23;;;;;;;22.35;6.50;;;;;;;;;;5091200;28;20051;-86
2024/01/26 10:30:48;;;;;;;26.30;7.00;;;;;;;;;;5097043;28;20020;-87
2024/01/26 10:33:13;;;;;;;17.35;5.55;;;;;;;;;;5094836;28;20024;-87
2024/01/26 10:35:43;;;;;;;14.23;4.80;;;;;;;;;;5097056;28;20186;-87
2024/01/26 10:38:10;;;;;;;12.88;4.47;;;;;;;;;;5078977;28;20024;-86
2024/01/26 10:40:36;;;;;;;15.50;5.25;;;;;;;;;;5078323;28;20483;-87
2024/01/26 10:43:01;;;;;;;15.30;6.13;;;;;;;;;;5096733;28;20024;-87
2024/01/26 10:45:27;;;;;;;13.00;5.13;;;;;;;;;;5096406;28;20490;-86
2024/01/26 10:47:52;;;;;;;14.00;5.07;;;;;;;;;;5096909;28;20016;-86
2024/01/26 10:50:18;;;;;;;11.98;5.13;;;;;;;;;;5078581;28;20027;-85
2024/01/26 10:52:47;;;;;;;9.75;4.80;;;;;;;;;;5096635;28;20024;-86
2024/01/26 10:55:14;;;;;;;19.65;6.10;;;;;;;;;;5096071;28;20419;-86
2024/01/26 10:57:40;;;;;;;16.35;5.88;;;;;;;;;;5061132;28;20043;-85
2024/01/26 11:00:06;;;;;;;14.32;6.63;;;;;;;;;;5096050;28;20062;-87
2024/01/26 11:02:34;;;;;;;13.32;6.40;;;;;;;;;;5096336;28;20043;-86
2024/01/26 11:05:00;;;;;;;15.20;6.20;;;;;;;;;;5096231;28;20530;-86
2024/01/26 11:07:25;;;;;;;18.30;5.65;;;;;;;;;;5096686;28;20024;-87
2024/01/26 11:09:51;;;;;;;16.30;6.28;;;;;;;;;;5096223;28;20028;-87
2024/01/26 11:12:19;;;;;;;18.23;6.53;;;;;;;;;;5095925;28;20106;-87
2024/01/26 11:14:46;;;;;;;18.45;5.28;;;;;;;;;;5095425;28;20187;-86
2024/01/26 11:17:11;;;;;;;19.00;5.07;;;;;;;;;;5077957;28;20027;-89
2024/01/26 11:19:37;;;;;;;13.20;5.28;;;;;;;;;;5096169;28;20024;-88
2024/01/26 11:22:04;;;;;;;9.35;4.28;;;;;;;;;;5078400;28;20076;-88
2024/01/26 11:24:31;;;;;;;16.42;4.47;;;;;;;;;;5078250;28;20027;-88
2024/01/26 11:27:00;;;;;;;11.32;3.97;;;;;;;;;;5079334;28;20032;-87
2024/01/26 11:29:35;;;;;;;9.60;3.80;;;;;;;;;;5081048;28;20035;-87
2024/01/26 11:32:01;;;;;;;11.10;3.65;;;;;;;;;;5099632;28;20080;-87
2024/01/26 11:34:27;;;;;;;11.65;3.75;;;;;;;;;;5099058;28;20024;-86
2024/01/26 11:37:05;;;;;;;10.82;3.63;;;;;;;;;;5098760;28;20016;-87
2024/01/26 11:39:32;;;;;;;8.60;3.30;;;;;;;;;;5098205;28;20020;-85
2024/01/26 11:41:58;;;;;;;11.05;3.88;;;;;;;;;;5097662;28;20024;-86
2024/01/26 11:44:30;;;;;;;12.32;4.18;;;;;;;;;;5111426;28;20033;-86
2024/01/26 11:46:55;;;;;;;10.52;3.88;;;;;;;;;;5120740;28;20027;-86
2024/01/26 11:49:21;;;;;;;10.35;4.57;;;;;;;;;;5097472;28;20024;-87
2024/01/26 11:51:46;;;;;;;12.38;3.95;;;;;;;;;;5102163;28;20031;-86
2024/01/26 11:54:12;;;;;;;8.68;4.10;;;;;;;;;;5084890;28;20028;-86
2024/01/26 11:56:37;;;;;;;14.48;4.13;;;;;;;;;;5120429;28;20036;-86
2024/01/26 11:59:02;;;;;;;13.35;3.80;;;;;;;;;;5122325;28;20031;-85
2024/01/26 12:01:28;;;;;;;9.98;4.13;;;;;;;;;;5122105;28;20024;-86
2024/01/26 12:03:53;;;;;;;11.30;3.78;;;;;;;;;;5104875;28;20035;-85
2024/01/26 12:06:18;;;;;;;11.30;4.40;;;;;;;;;;5120685;28;20019;-84
2024/01/26 12:08:44;;;;;;;8.93;4.35;;;;;;;;;;5104516;28;20054;-86
2024/01/26 12:11:10;;;;;;;7.75;3.85;;;;;;;;;;5121255;28;20028;-86
2024/01/26 12:13:35;;;;;;;10.40;3.85;;;;;;;;;;5090074;28;20027;-87
2024/01/26 12:16:03;;;;;;;9.90;4.15;;;;;;;;;;5085398;28;20016;-87
2024/01/26 12:18:28;;;;;;;9.05;3.88;;;;;;;;;;5104367;28;20016;-87
2024/01/26 12:20:53;;;;;;;9.93;4.78;;;;;;;;;;5092270;28;20026;-87
2024/01/26 12:23:19;;;;;;;9.95;4.43;;;;;;;;;;5111138;28;20419;-86
2024/01/26 12:25:45;;;;;;;11.40;4.57;;;;;;;;;;5109728;28;20020;-86
2024/01/26 12:28:10;;;;;;;13.68;5.28;;;;;;;;;;5110426;28;20052;-86
2024/01/26 12:30:36;;;;;;;9.93;4.40;;;;;;;;;;5111004;28;20063;-87
2024/01/26 12:33:07;;;;;;;14.60;5.70;;;;;;;;;;5092671;28;20023;-85
2024/01/26 12:35:34;;;;;;;13.82;5.65;;;;;;;;;;5111446;28;20019;-86
2024/01/26 12:37:59;;;;;;;16.02;5.45;;;;;;;;;;5112293;28;20066;-86
2024/01/26 12:40:25;;;;;;;10.55;5.25;;;;;;;;;;5111165;28;20049;-86
2024/01/26 12:42:50;;;;;;;12.20;5.00;;;;;;;;;;5111545;28;20031;-85
2024/01/26 12:45:16;;;;;;;10.15;5.45;;;;;;;;;;5111586;28;20513;-87
2024/01/26 12:47:41;;;;;;;12.93;5.78;;;;;;;;;;5110146;28;20087;-85
2024/01/26 12:50:07;;;;;;;15.75;5.18;;;;;;;;;;5110816;28;20027;-87
2024/01/26 12:52:32;;;;;;;13.02;5.65;;;;;;;;;;5112552;28;20020;-87
2024/01/26 12:54:57;;;;;;;16.50;7.20;;;;;;;;;;5110110;28;20031;-87
2024/01/26 12:57:22;;;;;;;14.95;6.22;;;;;;;;;;5085506;28;20354;-88
2024/01/26 12:59:48;;;;;;;11.38;5.38;;;;;;;;;;5087753;28;20016;-87
2024/01/26 13:02:14;;;;;;;13.43;5.18;;;;;;;;;;5087886;28;20020;-87
2024/01/26 13:04:39;;;;;;;13.82;5.68;;;;;;;;;;5084688;28;20024;-85
2024/01/26 13:07:05;;;;;;;12.15;5.50;;;;;;;;;;5112413;28;20038;-87
2024/01/26 13:09:30;;;;;;;13.90;5.53;;;;;;;;;;5091854;28;20385;-87
2024/01/26 13:11:57;;;;;;;12.95;5.40;;;;;;;;;;5091576;28;20024;-87
2024/01/26 13:14:22;;;;;;;21.48;5.70;;;;;;;;;;5111053;28;20023;-86
2024/01/26 13:16:48;;;;;;;17.90;5.68;;;;;;;;;;5107731;28;20027;-86
2024/01/26 13:19:14;;;;;;;12.82;5.10;;;;;;;;;;5114777;28;20148;-88
2024/01/26 13:21:39;;;;;;;14.02;5.00;;;;;;;;;;5096812;28;20076;-86
2024/01/26 13:24:04;;;;;;;12.25;5.32;;;;;;;;;;5116404;28;20020;-88
2024/01/26 13:26:30;;;;;;;17.30;5.85;;;;;;;;;;5115124;28;20031;-85
2024/01/26 13:28:55;;;;;;;18.60;6.18;;;;;;;;;;5115023;28;20070;-87
2024/01/26 13:31:20;;;;;;;17.80;6.13;;;;;;;;;;5111362;28;20071;-88
2024/01/26 13:33:46;;;;;;;13.93;6.00;;;;;;;;;;5108800;28;20028;-86
2024/01/26 13:36:11;;;;;;;13.48;6.15;;;;;;;;;;5112179;28;20461;-86
2024/01/26 13:38:36;;;;;;;15.40;7.40;;;;;;;;;;5110290;28;20016;-86
2024/01/26 13:41:02;;;;;;;15.57;6.85;;;;;;;;;;5111431;28;20023;-87
2024/01/26 13:43:30;;;;;;;19.80;7.47;;;;;;;;;;5114835;28;20106;-85
2024/01/26 13:45:56;;;;;;;19.48;6.85;;;;;;;;;;5095262;28;20026;-85
2024/01/26 13:48:21;;;;;;;16.83;5.97;;;;;;;;;;5114499;28;20004;-87
2024/01/26 13:50:50;;;;;;;18.92;6.95;;;;;;;;;;5113445;28;20028;-87
2024/01/26 13:53:17;;;;;;;18.05;6.38;;;;;;;;;;5105160;28;20024;-87
2024/01/26 13:55:43;;;;;;;17.55;5.45;;;;;;;;;;5103942;28;20407;-86
2024/01/26 13:58:08;;;;;;;18.67;5.88;;;;;;;;;;5083927;28;20070;-86
2024/01/26 14:00:33;;;;;;;11.93;5.15;;;;;;;;;;5087748;28;20028;-86
2024/01/26 14:02:59;;;;;;;13.68;5.60;;;;;;;;;;5105629;28;20024;-88
2024/01/26 14:05:24;;;;;;;16.10;5.82;;;;;;;;;;5099019;28;20017;-85
2024/01/26 14:07:50;;;;;;;13.38;5.75;;;;;;;;;;5097138;28;20020;-86
2024/01/26 14:10:15;;;;;;;19.85;6.45;;;;;;;;;;5098115;28;20480;-85
2024/01/26 14:12:44;;;;;;;18.73;6.20;;;;;;;;;;5096483;28;20024;-84
2024/01/26 14:15:13;;;;;;;14.27;6.40;;;;;;;;;;5097338;28;20031;-84
2024/01/26 14:17:38;;;;;;;18.67;7.20;;;;;;;;;;5081928;28;20020;-84
2024/01/26 14:20:04;;;;;;;16.83;7.20;;;;;;;;;;5099816;28;20492;-85